EGAE

City of Derry Airport

Derry, United Kingdom
METAR EGAE 181950Z 21015KT 9999 FEW035 14/09 Q0996
Observed Flight Rules
Sep-18 @ 19:50 UTC (10 hours ago) Visual Flight Rules
Wind Visibility Clouds
210° at 15 knots 10,000+ meters
  • Few at 3,500' AGL
Temperatures Readings
Current 14°C / 57°F
Dewpoint 9°C / 48°F
Humidity 72%
Altimeter 29.41" Hg
Pressure 996 hPa
Elevation 9
METAR EGAE 181950Z 21015KT 9999 FEW035 14/09 Q0996
Observed Flight Rules
Sep-18 @ 19:50 UTC
(10 hours ago)
VFR
Wind Visibility
210° at 15 knots 10,000+ meters
Clouds
  • Few at 3,500' AGL
Temperature Dewpoint
14°C / 57°F 9°C / 48°F
Humidity Altimeter Pressure
72% 29.41" Hg 996 hPa